createdAt,value
2018-06-15T00:00:59.479Z,19.48
2018-06-15T00:03:27.647Z,19.43
2018-06-15T00:05:55.856Z,19.64
2018-06-15T00:08:25.059Z,19.69
2018-06-15T00:10:53.331Z,19.73
2018-06-15T00:13:21.397Z,19.83
2018-06-15T00:15:49.803Z,19.77
2018-06-15T00:18:18.050Z,19.76
2018-06-15T00:20:46.190Z,19.80
2018-06-15T00:23:14.347Z,19.69
2018-06-15T00:25:42.426Z,19.55
2018-06-15T00:28:10.521Z,19.58
2018-06-15T00:30:38.738Z,19.38
2018-06-15T00:33:06.933Z,19.65
2018-06-15T00:35:35.345Z,19.77
2018-06-15T00:38:03.543Z,19.80
2018-06-15T00:40:31.841Z,19.70
2018-06-15T00:43:00.097Z,19.66
2018-06-15T00:45:28.271Z,19.79
2018-06-15T00:47:58.414Z,19.81
2018-06-15T00:50:26.717Z,19.76
2018-06-15T00:52:54.774Z,19.75
2018-06-15T00:55:23.909Z,19.70
2018-06-15T00:57:51.980Z,19.76
2018-06-15T01:00:20.060Z,19.89
2018-06-15T01:02:48.343Z,19.97
2018-06-15T01:05:16.549Z,19.84
2018-06-15T01:07:44.656Z,19.95
2018-06-15T01:10:12.803Z,19.70
2018-06-15T01:12:40.836Z,19.85
2018-06-15T01:15:10.031Z,19.84
2018-06-15T01:17:38.552Z,19.30
2018-06-15T01:20:06.652Z,19.11
2018-06-15T01:22:34.725Z,19.19
2018-06-15T01:25:03.110Z,19.18
2018-06-15T01:27:31.232Z,19.50
2018-06-15T01:29:59.296Z,19.72
2018-06-15T01:32:27.391Z,19.82
2018-06-15T01:34:55.452Z,19.81
2018-06-15T01:37:23.579Z,19.72
2018-06-15T01:39:51.912Z,19.58
2018-06-15T01:42:20.060Z,19.11
2018-06-15T01:44:48.265Z,19.30
2018-06-15T01:47:16.332Z,19.53
2018-06-15T01:49:44.447Z,19.11
2018-06-15T01:52:13.523Z,19.15
2018-06-15T01:54:41.645Z,19.45
2018-06-15T01:57:09.885Z,19.29
2018-06-15T01:59:38.004Z,19.36
2018-06-15T02:02:06.154Z,19.48
2018-06-15T02:04:34.348Z,19.42
2018-06-15T02:07:02.470Z,19.24
2018-06-15T02:09:30.564Z,19.25
2018-06-15T02:11:58.838Z,19.21
2018-06-15T02:14:30.921Z,19.23
2018-06-15T02:17:10.943Z,19.27
2018-06-15T02:19:39.719Z,19.26
2018-06-15T02:22:07.923Z,19.29
2018-06-15T02:24:36.152Z,19.20
2018-06-15T02:27:04.416Z,19.33
2018-06-15T02:29:32.655Z,18.96
2018-06-15T02:32:00.727Z,19.01
2018-06-15T02:34:29.143Z,18.96
2018-06-15T02:36:57.268Z,19.17
2018-06-15T02:39:25.369Z,19.11
2018-06-15T02:41:53.599Z,18.65
2018-06-15T02:44:22.249Z,18.55
2018-06-15T02:46:51.414Z,18.57
2018-06-15T02:49:19.668Z,18.93
2018-06-15T02:51:47.823Z,18.85
2018-06-15T02:54:16.255Z,18.84
2018-06-15T02:56:44.564Z,18.74
2018-06-15T02:59:13.638Z,18.84
2018-06-15T03:01:41.750Z,18.85
2018-06-15T03:04:09.955Z,18.83
2018-06-15T03:06:38.095Z,18.99
2018-06-15T03:09:06.494Z,18.88
2018-06-15T03:11:34.676Z,19.02
2018-06-15T03:14:02.742Z,18.99
2018-06-15T03:16:31.008Z,18.79
2018-06-15T03:18:59.225Z,19.13
2018-06-15T03:21:27.356Z,19.10
2018-06-15T03:23:55.810Z,19.14
2018-06-15T03:26:24.033Z,19.19
2018-06-15T03:28:52.930Z,19.05
2018-06-15T03:31:21.652Z,18.84
2018-06-15T03:33:50.266Z,19.09
2018-06-15T03:36:18.568Z,19.10
2018-06-15T03:38:46.686Z,19.23
2018-06-15T03:41:14.910Z,19.11
2018-06-15T03:43:43.052Z,19.19
2018-06-15T03:46:11.172Z,19.00
2018-06-15T03:48:39.378Z,19.17
2018-06-15T03:51:07.463Z,19.23
2018-06-15T03:53:35.671Z,19.24
2018-06-15T03:56:03.792Z,19.00
2018-06-15T03:58:32.086Z,18.98
2018-06-15T04:01:00.204Z,19.35
2018-06-15T04:03:28.296Z,19.44
2018-06-15T04:05:56.829Z,19.25
2018-06-15T04:08:25.135Z,19.15
2018-06-15T04:10:53.271Z,19.36
2018-06-15T04:13:21.389Z,19.35
2018-06-15T04:15:49.646Z,19.21
2018-06-15T04:18:17.764Z,19.20
2018-06-15T04:20:46.137Z,18.93
2018-06-15T04:23:14.317Z,18.90
2018-06-15T04:25:42.400Z,19.29
2018-06-15T04:28:10.637Z,19.51
2018-06-15T04:30:38.944Z,19.43
2018-06-15T04:33:07.086Z,19.33
2018-06-15T04:35:35.310Z,19.29
2018-06-15T04:38:03.498Z,19.37
2018-06-15T04:40:31.638Z,18.81
2018-06-15T04:42:59.796Z,18.71
2018-06-15T04:45:28.775Z,18.68
2018-06-15T04:47:56.919Z,18.68
2018-06-15T04:50:25.036Z,18.57
2018-06-15T04:52:53.428Z,18.78
2018-06-15T04:55:21.568Z,18.96
2018-06-15T04:57:49.657Z,19.12
2018-06-15T05:00:17.781Z,19.23
2018-06-15T05:02:46.006Z,19.02
2018-06-15T05:05:14.104Z,19.10
2018-06-15T05:07:42.415Z,19.01
2018-06-15T05:10:10.528Z,18.89
2018-06-15T05:12:38.703Z,18.81
2018-06-15T05:15:06.831Z,18.80
2018-06-15T05:17:35.094Z,19.02
2018-06-15T05:20:03.267Z,18.89
2018-06-15T05:22:31.585Z,18.88
2018-06-15T05:25:00.109Z,18.95
2018-06-15T05:27:28.293Z,19.17
2018-06-15T05:29:56.459Z,19.23
2018-06-15T05:32:24.562Z,18.93
2018-06-15T05:34:52.954Z,18.89
2018-06-15T05:37:21.179Z,18.95
2018-06-15T05:39:49.462Z,19.12
2018-06-15T05:42:17.618Z,18.72
2018-06-15T05:44:45.810Z,19.25
2018-06-15T05:47:13.943Z,19.13
2018-06-15T05:49:42.036Z,19.20
2018-06-15T05:52:10.211Z,19.13
2018-06-15T05:54:38.436Z,19.00
2018-06-15T05:57:06.995Z,18.98
2018-06-15T05:59:35.939Z,19.36
2018-06-15T06:02:04.208Z,19.34
2018-06-15T06:04:33.062Z,19.15
2018-06-15T06:07:01.391Z,19.34
2018-06-15T06:09:29.692Z,19.45
2018-06-15T06:11:57.784Z,19.52
2018-06-15T06:14:26.044Z,19.57
2018-06-15T06:16:54.319Z,19.50
2018-06-15T06:19:23.284Z,19.73
2018-06-15T06:21:51.381Z,19.50
2018-06-15T06:24:19.778Z,19.24
2018-06-15T06:26:48.008Z,19.59
2018-06-15T06:29:16.324Z,19.57
2018-06-15T06:31:44.659Z,19.83
2018-06-15T06:34:12.750Z,19.98
2018-06-15T06:36:40.939Z,20.06
2018-06-15T06:39:11.368Z,19.69
2018-06-15T06:41:39.734Z,20.03
2018-06-15T06:44:08.016Z,20.44
2018-06-15T06:46:36.387Z,20.55
2018-06-15T06:49:04.671Z,20.54
2018-06-15T06:51:32.849Z,20.42
2018-06-15T06:54:01.091Z,20.47
2018-06-15T06:56:29.232Z,20.31
2018-06-15T06:58:57.495Z,20.48
2018-06-15T07:01:25.636Z,20.41
2018-06-15T07:03:53.771Z,20.47
2018-06-15T07:06:21.970Z,20.76
2018-06-15T07:08:50.091Z,20.61
2018-06-15T07:11:18.669Z,20.50
2018-06-15T07:13:46.780Z,20.79
2018-06-15T07:16:15.030Z,21.00
2018-06-15T07:18:43.209Z,20.97
2018-06-15T07:21:11.401Z,20.99
2018-06-15T07:23:39.590Z,20.91
2018-06-15T07:26:07.667Z,21.11
2018-06-15T07:28:36.417Z,21.14
2018-06-15T07:31:04.555Z,21.37
2018-06-15T07:33:32.788Z,21.01
2018-06-15T07:36:00.860Z,20.92
2018-06-15T07:38:29.194Z,21.01
2018-06-15T07:40:57.317Z,21.01
2018-06-15T07:43:25.459Z,20.91
2018-06-15T07:45:53.631Z,21.55
2018-06-15T07:48:22.024Z,21.65
2018-06-15T07:50:50.131Z,21.32
2018-06-15T07:53:18.202Z,21.88
2018-06-15T07:55:46.511Z,21.11
2018-06-15T07:58:14.636Z,21.31
2018-06-15T08:00:42.820Z,21.60
2018-06-15T08:03:11.323Z,22.11
2018-06-15T08:05:39.423Z,22.27
2018-06-15T08:08:07.534Z,22.32
2018-06-15T08:10:36.876Z,22.34
2018-06-15T08:13:05.070Z,22.39
2018-06-15T08:15:34.371Z,22.20
2018-06-15T08:18:04.976Z,22.47
2018-06-15T08:20:33.056Z,22.18
2018-06-15T08:23:01.107Z,22.30
2018-06-15T08:25:29.214Z,22.40
2018-06-15T08:27:57.271Z,22.65
2018-06-15T08:30:25.333Z,22.42
2018-06-15T08:32:54.453Z,22.63
2018-06-15T08:35:29.821Z,22.61
2018-06-15T08:38:00.018Z,22.48
2018-06-15T08:40:42.574Z,22.52
2018-06-15T08:43:11.452Z,22.03
2018-06-15T08:45:39.753Z,22.24
2018-06-15T08:48:07.891Z,21.86
2018-06-15T08:50:36.063Z,22.22
2018-06-15T08:53:04.207Z,22.10
2018-06-15T08:55:32.616Z,22.93
2018-06-15T08:58:00.758Z,23.08
2018-06-15T09:00:29.009Z,23.19
2018-06-15T09:02:57.263Z,23.27
2018-06-15T09:05:26.052Z,23.24
2018-06-15T09:07:54.355Z,23.00
2018-06-15T09:10:22.919Z,23.09
2018-06-15T09:12:50.999Z,23.54
2018-06-15T09:15:19.155Z,23.46
2018-06-15T09:17:47.254Z,23.81
2018-06-15T09:20:15.557Z,23.74
2018-06-15T09:22:43.659Z,23.64
2018-06-15T09:25:11.772Z,22.54
2018-06-15T09:27:40.028Z,22.50
2018-06-15T09:30:08.250Z,23.08
2018-06-15T09:32:36.777Z,23.34
2018-06-15T09:35:05.157Z,23.37
2018-06-15T09:37:33.234Z,23.54
2018-06-15T09:40:01.316Z,23.78
2018-06-15T09:42:29.579Z,23.76
2018-06-15T09:44:58.275Z,23.81
2018-06-15T09:47:26.445Z,23.69
2018-06-15T09:49:54.763Z,23.92
2018-06-15T09:52:23.012Z,24.03
2018-06-15T09:54:51.148Z,23.50
2018-06-15T09:57:19.259Z,23.99
2018-06-15T09:59:47.535Z,24.06
2018-06-15T10:02:15.695Z,24.24
2018-06-15T10:04:43.863Z,24.59
2018-06-15T10:07:12.056Z,24.79
2018-06-15T10:09:40.247Z,23.70
2018-06-15T10:12:08.412Z,23.54
2018-06-15T10:14:36.647Z,24.06
2018-06-15T10:17:05.097Z,23.47
2018-06-15T10:19:34.390Z,23.26
2018-06-15T10:22:04.343Z,23.48
2018-06-15T10:24:32.453Z,23.34
2018-06-15T10:27:00.607Z,23.93
2018-06-15T10:29:28.755Z,23.67
2018-06-15T10:31:57.044Z,23.79
2018-06-15T10:34:25.234Z,23.87
2018-06-15T10:36:54.495Z,23.70
2018-06-15T10:39:23.506Z,24.03
2018-06-15T10:41:51.606Z,24.20
2018-06-15T10:44:19.699Z,23.76
2018-06-15T10:46:47.833Z,23.83
2018-06-15T10:49:16.086Z,23.89
2018-06-15T10:51:44.242Z,23.92
2018-06-15T10:54:12.311Z,23.57
2018-06-15T10:56:41.603Z,23.48
2018-06-15T10:59:09.775Z,23.55
2018-06-15T11:01:38.448Z,23.43
2018-06-15T11:04:06.532Z,23.34
2018-06-15T11:06:34.617Z,23.57
2018-06-15T11:09:02.839Z,23.57
2018-06-15T11:11:31.065Z,23.20
2018-06-15T11:13:59.883Z,22.86
2018-06-15T11:16:28.007Z,23.52
2018-06-15T11:18:56.244Z,23.52
2018-06-15T11:21:24.607Z,23.32
2018-06-15T11:23:52.656Z,23.06
2018-06-15T11:26:20.718Z,23.37
2018-06-15T11:28:48.830Z,23.26
2018-06-15T11:31:17.136Z,23.29
2018-06-15T11:33:45.399Z,23.33
2018-06-15T11:36:13.498Z,23.24
2018-06-15T11:38:42.617Z,23.47
2018-06-15T11:41:11.037Z,22.98
2018-06-15T11:43:39.055Z,23.14
2018-06-15T11:46:08.215Z,23.25
2018-06-15T11:48:36.678Z,22.76
2018-06-15T11:51:04.770Z,22.88
2018-06-15T11:53:32.866Z,23.11
2018-06-15T11:56:01.011Z,23.04
2018-06-15T11:58:29.154Z,23.13
2018-06-15T12:00:57.744Z,23.15
2018-06-15T12:03:25.868Z,23.18
2018-06-15T12:05:54.949Z,23.09
2018-06-15T12:08:23.123Z,23.06
2018-06-15T12:10:51.219Z,23.01
2018-06-15T12:13:19.455Z,22.69
2018-06-15T12:15:47.704Z,22.54
2018-06-15T12:18:15.878Z,22.66
2018-06-15T12:20:44.163Z,22.84
2018-06-15T12:23:12.319Z,22.77
2018-06-15T12:25:40.749Z,22.82
2018-06-15T12:28:08.978Z,22.86
2018-06-15T12:30:37.261Z,22.36
2018-06-15T12:33:05.517Z,22.38
2018-06-15T12:35:33.980Z,22.37
2018-06-15T12:38:02.142Z,22.76
2018-06-15T12:40:30.241Z,22.54
2018-06-15T12:42:58.647Z,22.42
2018-06-15T12:45:26.831Z,22.84
2018-06-15T12:47:55.147Z,22.52
2018-06-15T12:50:23.767Z,22.81
2018-06-15T12:52:52.100Z,22.81
2018-06-15T12:55:20.425Z,22.99
2018-06-15T12:57:48.657Z,22.80
2018-06-15T13:00:16.814Z,22.63
2018-06-15T13:02:44.885Z,23.33
2018-06-15T13:05:13.160Z,23.23
2018-06-15T13:07:41.267Z,23.79
2018-06-15T13:10:09.394Z,24.27
2018-06-15T13:12:37.556Z,24.30
2018-06-15T13:15:05.723Z,24.25
2018-06-15T13:17:33.939Z,24.33
2018-06-15T13:20:02.107Z,24.54
2018-06-15T13:22:30.174Z,24.65
2018-06-15T13:24:58.474Z,24.42
2018-06-15T13:27:26.588Z,24.75
2018-06-15T13:29:55.648Z,24.81
2018-06-15T13:32:24.489Z,24.81
2018-06-15T13:34:52.608Z,24.84
2018-06-15T13:37:20.744Z,24.80
2018-06-15T13:39:48.926Z,24.63
2018-06-15T13:42:17.085Z,24.72
2018-06-15T13:44:45.277Z,24.78
2018-06-15T13:47:13.467Z,24.66
2018-06-15T13:49:41.583Z,24.65
2018-06-15T13:52:09.847Z,24.76
2018-06-15T13:54:38.043Z,25.14
2018-06-15T13:57:06.133Z,25.39
2018-06-15T13:59:34.243Z,25.68
2018-06-15T14:02:02.344Z,25.84
2018-06-15T14:04:30.450Z,25.50
2018-06-15T14:06:59.785Z,25.45
2018-06-15T14:09:27.997Z,25.42
2018-06-15T14:11:56.127Z,25.43
2018-06-15T14:14:24.277Z,25.51
2018-06-15T14:16:53.225Z,25.64
2018-06-15T14:19:22.093Z,25.55
2018-06-15T14:21:51.841Z,25.83
2018-06-15T14:24:20.147Z,25.44
2018-06-15T14:26:48.627Z,25.52
2018-06-15T14:29:17.100Z,25.81
2018-06-15T14:31:45.380Z,26.09
2018-06-15T14:34:13.478Z,26.15
2018-06-15T14:36:41.617Z,26.65
2018-06-15T14:39:11.004Z,26.94
2018-06-15T14:41:39.107Z,26.99
2018-06-15T14:44:07.342Z,26.45
2018-06-15T14:46:37.199Z,25.88
2018-06-15T14:49:05.338Z,26.19
2018-06-15T14:51:33.444Z,26.27
2018-06-15T14:54:01.522Z,26.19
2018-06-15T14:56:29.618Z,25.87
2018-06-15T14:58:57.702Z,25.91
2018-06-15T15:01:25.869Z,25.82
2018-06-15T15:03:53.967Z,25.73
2018-06-15T15:06:22.059Z,25.63
2018-06-15T15:08:50.194Z,25.73
2018-06-15T15:11:18.286Z,25.78
2018-06-15T15:13:46.420Z,25.78
2018-06-15T15:16:14.578Z,25.11
2018-06-15T15:18:42.755Z,25.43
2018-06-15T15:21:10.863Z,25.18
2018-06-15T15:23:39.140Z,25.14
2018-06-15T15:26:07.378Z,24.79
2018-06-15T15:28:35.671Z,24.92
2018-06-15T15:31:03.823Z,24.92
2018-06-15T15:33:31.917Z,24.62
2018-06-15T15:35:59.991Z,24.46
2018-06-15T15:38:28.812Z,23.77
2018-06-15T15:40:57.008Z,24.03
2018-06-15T15:43:26.247Z,24.33
2018-06-15T15:45:54.467Z,24.22
2018-06-15T15:48:22.734Z,23.98
2018-06-15T15:50:53.260Z,24.10
2018-06-15T15:53:21.388Z,24.19
2018-06-15T15:55:49.526Z,24.01
2018-06-15T15:58:18.635Z,24.16
2018-06-15T16:00:46.722Z,24.10
2018-06-15T16:03:14.968Z,24.26
2018-06-15T16:05:43.051Z,24.32
2018-06-15T16:08:11.373Z,24.30
2018-06-15T16:10:39.493Z,24.38
2018-06-15T16:13:07.674Z,24.15
2018-06-15T16:15:36.964Z,24.26
2018-06-15T16:18:05.512Z,24.07
2018-06-15T16:20:33.683Z,24.28
2018-06-15T16:23:01.888Z,23.96
2018-06-15T16:25:30.087Z,24.02
2018-06-15T16:27:58.172Z,23.81
2018-06-15T16:30:26.310Z,23.65
2018-06-15T16:32:54.403Z,24.14
2018-06-15T16:35:22.499Z,24.07
2018-06-15T16:37:50.635Z,24.20
2018-06-15T16:40:18.789Z,23.94
2018-06-15T16:42:46.892Z,23.68
2018-06-15T16:45:14.994Z,24.08
2018-06-15T16:47:43.139Z,24.24
2018-06-15T16:50:11.240Z,24.29
2018-06-15T16:52:39.380Z,23.99
2018-06-15T16:55:07.447Z,23.58
2018-06-15T16:57:35.566Z,23.68
2018-06-15T17:00:03.887Z,23.10
2018-06-15T17:02:32.033Z,23.59
2018-06-15T17:05:00.113Z,23.77
2018-06-15T17:07:28.475Z,23.91
2018-06-15T17:09:56.600Z,24.04
2018-06-15T17:12:24.966Z,23.84
2018-06-15T17:14:53.071Z,23.91
2018-06-15T17:17:21.247Z,23.83
2018-06-15T17:19:49.489Z,23.74
2018-06-15T17:22:17.611Z,23.63
2018-06-15T17:24:45.679Z,23.69
2018-06-15T17:27:13.880Z,23.76
2018-06-15T17:29:41.947Z,23.66
2018-06-15T17:32:10.015Z,23.73
2018-06-15T17:34:38.165Z,23.67
2018-06-15T17:37:06.280Z,23.67
2018-06-15T17:39:34.591Z,23.58
2018-06-15T17:42:02.842Z,23.76
2018-06-15T17:44:34.166Z,23.82
2018-06-15T17:47:21.658Z,23.57
2018-06-15T17:49:51.962Z,23.60
2018-06-15T17:52:20.171Z,23.62
2018-06-15T17:54:48.458Z,23.65
2018-06-15T17:57:16.720Z,23.60
2018-06-15T17:59:44.977Z,23.49
2018-06-15T18:02:13.040Z,23.37
2018-06-15T18:04:41.118Z,23.07
2018-06-15T18:07:09.241Z,23.35
2018-06-15T18:09:38.219Z,23.51
2018-06-15T18:12:06.314Z,23.33
2018-06-15T18:14:34.499Z,23.21
2018-06-15T18:17:02.743Z,23.19
2018-06-15T18:19:30.802Z,23.25
2018-06-15T18:21:59.530Z,23.22
2018-06-15T18:24:27.757Z,23.38
2018-06-15T18:26:56.850Z,23.38
2018-06-15T18:29:25.184Z,23.28
2018-06-15T18:31:53.278Z,23.12
2018-06-15T18:34:21.386Z,23.15
2018-06-15T18:36:49.802Z,23.06
2018-06-15T18:39:17.946Z,23.15
2018-06-15T18:41:46.155Z,22.92
2018-06-15T18:44:14.560Z,23.14
2018-06-15T18:46:42.733Z,23.23
2018-06-15T18:49:11.011Z,23.25
2018-06-15T18:51:39.111Z,23.20
2018-06-15T18:54:07.476Z,23.20
2018-06-15T18:56:35.582Z,22.96
2018-06-15T18:59:03.766Z,23.11
2018-06-15T19:01:31.929Z,23.14
2018-06-15T19:04:00.099Z,23.07
2018-06-15T19:06:28.186Z,23.09
2018-06-15T19:08:57.047Z,23.07
2018-06-15T19:11:25.450Z,22.98
2018-06-15T19:13:53.610Z,23.03
2018-06-15T19:16:21.870Z,22.98
2018-06-15T19:18:50.004Z,22.96
2018-06-15T19:21:18.081Z,22.79
2018-06-15T19:23:46.187Z,22.85
2018-06-15T19:26:14.466Z,22.75
2018-06-15T19:28:42.732Z,22.62
2018-06-15T19:31:11.094Z,22.67
2018-06-15T19:33:39.210Z,22.77
2018-06-15T19:36:07.568Z,22.58
2018-06-15T19:38:35.926Z,22.64
2018-06-15T19:41:04.136Z,22.61
2018-06-15T19:43:32.269Z,22.57
2018-06-15T19:46:00.370Z,22.56
2018-06-15T19:48:28.481Z,22.65
2018-06-15T19:50:57.254Z,22.51
2018-06-15T19:53:25.515Z,22.34
2018-06-15T19:55:54.113Z,22.51
2018-06-15T19:58:22.256Z,22.52
2018-06-15T20:00:50.391Z,22.43
2018-06-15T20:05:45.697Z,22.34
2018-06-15T20:08:13.975Z,22.35
2018-06-15T20:10:42.117Z,22.29
2018-06-15T20:13:10.215Z,22.30
2018-06-15T20:15:38.323Z,22.28
2018-06-15T20:18:06.471Z,22.22
2018-06-15T20:20:34.606Z,22.27
2018-06-15T20:23:02.692Z,22.09
2018-06-15T20:25:30.990Z,22.11
2018-06-15T20:27:59.070Z,22.08
2018-06-15T20:30:27.935Z,21.83
2018-06-15T20:32:58.202Z,21.83
2018-06-15T20:35:26.423Z,21.85
2018-06-15T20:37:55.212Z,21.88
2018-06-15T20:40:23.335Z,22.00
2018-06-15T20:42:51.399Z,22.03
2018-06-15T20:45:19.465Z,22.02
2018-06-15T20:47:47.664Z,21.86
2018-06-15T20:50:15.793Z,21.77
2018-06-15T20:52:43.855Z,21.75
2018-06-15T20:55:11.958Z,21.68
2018-06-15T20:57:40.264Z,21.67
2018-06-15T21:00:08.365Z,21.78
2018-06-15T21:02:36.445Z,21.74
2018-06-15T21:05:04.602Z,21.53
2018-06-15T21:07:32.715Z,21.72
2018-06-15T21:10:00.842Z,21.58
2018-06-15T21:12:28.926Z,21.49
2018-06-15T21:14:57.916Z,21.50
2018-06-15T21:17:26.100Z,21.39
2018-06-15T21:19:54.313Z,21.35
2018-06-15T21:22:22.714Z,21.53
2018-06-15T21:24:50.816Z,21.47
2018-06-15T21:27:18.890Z,21.43
2018-06-15T21:29:47.003Z,21.48
2018-06-15T21:32:15.646Z,21.54
2018-06-15T21:34:43.829Z,21.41
2018-06-15T21:37:12.119Z,21.36
2018-06-15T21:39:40.208Z,20.97
2018-06-15T21:42:08.315Z,21.08
2018-06-15T21:44:36.496Z,21.17
2018-06-15T21:47:04.892Z,21.05
2018-06-15T21:49:32.976Z,21.07
2018-06-15T21:52:01.183Z,21.03
2018-06-15T21:54:29.300Z,21.14
2018-06-15T21:56:58.141Z,21.02
2018-06-15T21:59:26.338Z,20.82
2018-06-15T22:01:54.671Z,20.85
2018-06-15T22:04:22.761Z,20.97
2018-06-15T22:06:50.830Z,20.97
2018-06-15T22:09:18.901Z,20.95
2018-06-15T22:11:46.983Z,20.91
2018-06-15T22:14:17.479Z,20.94
2018-06-15T22:16:50.505Z,20.86
2018-06-15T22:19:20.850Z,20.89
2018-06-15T22:21:49.270Z,20.65
2018-06-15T22:24:17.370Z,20.68
2018-06-15T22:26:45.807Z,20.81
2018-06-15T22:29:13.939Z,20.79
2018-06-15T22:31:42.004Z,20.70
2018-06-15T22:34:10.271Z,20.53
2018-06-15T22:36:38.484Z,20.60
2018-06-15T22:39:14.619Z,20.66
2018-06-15T22:41:50.006Z,20.37
2018-06-15T22:44:19.122Z,20.21
2018-06-15T22:46:47.230Z,20.45
2018-06-15T22:49:15.358Z,20.48
2018-06-15T22:51:43.835Z,20.57
2018-06-15T22:54:11.952Z,20.44
2018-06-15T22:56:40.151Z,20.48
2018-06-15T22:59:08.322Z,20.46
2018-06-15T23:01:36.551Z,20.43
2018-06-15T23:04:04.719Z,20.42
2018-06-15T23:06:32.923Z,20.43
2018-06-15T23:09:01.931Z,20.45
2018-06-15T23:11:30.031Z,20.46
2018-06-15T23:13:59.552Z,20.27
2018-06-15T23:16:28.695Z,20.33
2018-06-15T23:18:56.986Z,20.28
2018-06-15T23:21:25.137Z,20.20
2018-06-15T23:23:53.931Z,20.20
2018-06-15T23:26:22.355Z,20.27
2018-06-15T23:28:50.679Z,20.19
2018-06-15T23:31:19.948Z,19.91
2018-06-15T23:33:48.259Z,19.83
2018-06-15T23:36:16.616Z,19.93
2018-06-15T23:38:44.786Z,19.64
2018-06-15T23:41:12.905Z,19.70
2018-06-15T23:43:41.044Z,19.83
2018-06-15T23:46:09.181Z,19.80
2018-06-15T23:48:37.380Z,19.90
2018-06-15T23:51:06.429Z,19.68
2018-06-15T23:53:35.510Z,19.70
2018-06-15T23:56:03.622Z,19.88
2018-06-15T23:58:31.782Z,19.82
